createdAt,value
2018-09-15T00:00:42.837Z,101492.00
2018-09-15T00:03:11.637Z,101486.00
2018-09-15T00:05:40.433Z,101491.00
2018-09-15T00:08:09.267Z,101495.00
2018-09-15T00:10:38.076Z,101491.00
2018-09-15T00:13:06.895Z,101488.00
2018-09-15T00:15:35.732Z,101482.00
2018-09-15T00:18:06.926Z,101487.00
2018-09-15T00:20:35.892Z,101480.00
2018-09-15T00:23:05.068Z,101485.00
2018-09-15T00:25:33.817Z,101476.00
2018-09-15T00:28:02.621Z,101486.00
2018-09-15T00:30:31.433Z,101476.00
2018-09-15T00:33:00.238Z,101479.00
2018-09-15T00:35:29.042Z,101484.00
2018-09-15T00:37:57.842Z,101476.00
2018-09-15T00:40:26.749Z,101478.00
2018-09-15T00:42:55.577Z,101472.00
2018-09-15T00:45:24.922Z,101483.00
2018-09-15T00:47:53.734Z,101479.00
2018-09-15T00:50:22.521Z,101476.00
2018-09-15T00:52:51.713Z,101470.00
2018-09-15T00:55:20.500Z,101470.00
2018-09-15T00:57:49.336Z,101474.00
2018-09-15T01:00:19.093Z,101463.00
2018-09-15T01:02:47.938Z,101460.00
2018-09-15T01:08:00.202Z,101458.00
2018-09-15T01:10:28.989Z,101457.00
2018-09-15T01:12:57.824Z,101458.00
2018-09-15T01:15:26.646Z,101459.00
2018-09-15T01:17:55.475Z,101466.00
2018-09-15T01:20:24.270Z,101458.00
2018-09-15T01:22:53.059Z,101451.00
2018-09-15T01:25:21.913Z,101446.00
2018-09-15T01:27:50.952Z,101449.00
2018-09-15T01:30:20.205Z,101448.00
2018-09-15T01:32:48.998Z,101449.00
2018-09-15T01:35:17.869Z,101445.00
2018-09-15T01:37:46.694Z,101441.00
2018-09-15T01:40:15.564Z,101456.00
2018-09-15T01:42:44.365Z,101453.00
2018-09-15T01:45:13.187Z,101448.00
2018-09-15T01:47:41.989Z,101447.00
2018-09-15T01:50:10.809Z,101447.00
2018-09-15T01:52:39.933Z,101447.00
2018-09-15T01:55:09.339Z,101439.00
2018-09-15T01:57:38.284Z,101458.00
2018-09-15T02:04:59.609Z,101438.00
2018-09-15T02:07:28.427Z,101440.00
2018-09-15T02:09:57.257Z,101456.00
2018-09-15T02:12:26.358Z,101453.00
2018-09-15T02:15:02.055Z,101447.00
2018-09-15T02:17:30.873Z,101464.00
2018-09-15T02:19:59.737Z,101467.00
2018-09-15T02:22:28.572Z,101462.00
2018-09-15T02:24:57.383Z,101470.00
2018-09-15T02:27:26.182Z,101470.00
2018-09-15T02:29:54.990Z,101466.00
2018-09-15T02:32:24.242Z,101466.00
2018-09-15T02:34:53.030Z,101467.00
2018-09-15T02:37:21.898Z,101469.00
2018-09-15T02:39:50.709Z,101466.00
2018-09-15T02:42:19.548Z,101465.00
2018-09-15T02:44:48.353Z,101470.00
2018-09-15T02:47:20.057Z,101475.00
2018-09-15T02:49:48.839Z,101470.00
2018-09-15T02:52:17.637Z,101463.00
2018-09-15T02:54:46.792Z,101470.00
2018-09-15T02:57:15.914Z,101468.00
2018-09-15T02:59:44.716Z,101477.00
2018-09-15T03:02:13.523Z,101471.00
2018-09-15T03:04:42.305Z,101485.00
2018-09-15T03:07:11.137Z,101461.00
2018-09-15T03:09:39.964Z,101468.00
2018-09-15T03:12:08.769Z,101456.00
2018-09-15T03:14:37.563Z,101468.00
2018-09-15T03:17:06.950Z,101466.00
2018-09-15T03:19:35.765Z,101468.00
2018-09-15T03:22:04.577Z,101475.00
2018-09-15T03:24:33.504Z,101477.00
2018-09-15T03:27:02.302Z,101478.00
2018-09-15T03:29:31.119Z,101485.00
2018-09-15T03:32:00.090Z,101473.00
2018-09-15T03:34:28.895Z,101475.00
2018-09-15T03:36:57.705Z,101480.00
2018-09-15T03:39:26.948Z,101473.00
2018-09-15T03:41:55.912Z,101481.00
2018-09-15T03:44:24.642Z,101472.00
2018-09-15T03:46:53.536Z,101474.00
2018-09-15T03:49:22.345Z,101481.00
2018-09-15T03:51:51.148Z,101488.00
2018-09-15T03:54:21.240Z,101494.00
2018-09-15T03:56:50.836Z,101491.00
2018-09-15T03:59:19.991Z,101494.00
2018-09-15T04:01:48.941Z,101494.00
2018-09-15T04:04:17.760Z,101492.00
2018-09-15T04:06:46.558Z,101491.00
2018-09-15T04:09:15.366Z,101494.00
2018-09-15T04:11:44.157Z,101498.00
2018-09-15T04:14:12.969Z,101501.00
2018-09-15T04:16:41.811Z,101499.00
2018-09-15T04:19:10.604Z,101512.00
2018-09-15T04:21:39.417Z,101490.00
2018-09-15T04:24:08.643Z,101512.00
2018-09-15T04:26:37.547Z,101510.00
2018-09-15T04:29:06.470Z,101514.00
2018-09-15T04:31:35.316Z,101514.00
2018-09-15T04:34:04.144Z,101533.00
2018-09-15T04:36:32.973Z,101534.00
2018-09-15T04:39:01.824Z,101525.00
2018-09-15T04:41:30.706Z,101522.00
2018-09-15T04:43:59.478Z,101532.00
2018-09-15T04:46:28.655Z,101532.00
2018-09-15T04:48:57.457Z,101532.00
2018-09-15T04:51:26.249Z,101537.00
2018-09-15T04:53:55.095Z,101536.00
2018-09-15T04:56:23.981Z,101530.00
2018-09-15T04:58:52.886Z,101530.00
2018-09-15T05:01:21.967Z,101541.00
2018-09-15T05:03:50.774Z,101543.00
2018-09-15T05:06:27.019Z,101543.00
2018-09-15T05:08:55.754Z,101550.00
2018-09-15T05:11:24.578Z,101551.00
2018-09-15T05:13:53.386Z,101558.00
2018-09-15T05:16:22.241Z,101559.00
2018-09-15T05:18:51.049Z,101557.00
2018-09-15T05:21:19.887Z,101563.00
2018-09-15T05:23:48.686Z,101556.00
2018-09-15T05:26:17.502Z,101561.00
2018-09-15T05:28:46.769Z,101565.00
2018-09-15T05:31:15.573Z,101582.00
2018-09-15T05:33:44.446Z,101573.00
2018-09-15T05:36:13.442Z,101581.00
2018-09-15T05:38:42.298Z,101582.00
2018-09-15T05:41:11.222Z,101583.00
2018-09-15T05:43:40.200Z,101579.00
2018-09-15T05:46:09.030Z,101582.00
2018-09-15T05:48:37.840Z,101588.00
2018-09-15T05:51:06.856Z,101595.00
2018-09-15T05:53:35.673Z,101609.00
2018-09-15T05:56:04.553Z,101605.00
2018-09-15T05:58:33.329Z,101599.00
2018-09-15T06:01:02.182Z,101605.00
2018-09-15T06:03:31.253Z,101609.00
2018-09-15T06:06:00.115Z,101609.00
2018-09-15T06:08:28.964Z,101615.00
2018-09-15T06:10:57.803Z,101609.00
2018-09-15T06:13:26.979Z,101614.00
2018-09-15T06:15:55.851Z,101607.00
2018-09-15T06:18:25.003Z,101606.00
2018-09-15T06:20:53.848Z,101626.00
2018-09-15T06:23:22.734Z,101617.00
2018-09-15T06:25:51.574Z,101627.00
2018-09-15T06:28:20.377Z,101626.00
2018-09-15T06:30:49.165Z,101628.00
2018-09-15T06:33:18.007Z,101638.00
2018-09-15T06:35:47.227Z,101630.00
2018-09-15T06:38:16.124Z,101635.00
2018-09-15T06:40:44.942Z,101634.00
2018-09-15T06:43:13.760Z,101634.00
2018-09-15T06:45:42.687Z,101641.00
2018-09-15T06:48:11.423Z,101643.00
2018-09-15T06:50:40.234Z,101642.00
2018-09-15T06:53:09.275Z,101650.00
2018-09-15T06:55:38.092Z,101644.00
2018-09-15T06:58:07.262Z,101649.00
2018-09-15T07:00:36.083Z,101650.00
2018-09-15T07:03:04.954Z,101651.00
2018-09-15T07:05:34.452Z,101656.00
2018-09-15T07:08:03.257Z,101649.00
2018-09-15T07:10:32.213Z,101651.00
2018-09-15T07:13:01.161Z,101661.00
2018-09-15T07:15:30.013Z,101663.00
2018-09-15T07:18:05.348Z,101662.00
2018-09-15T07:20:34.235Z,101669.00
2018-09-15T07:23:03.093Z,101663.00
2018-09-15T07:25:31.960Z,101678.00
2018-09-15T07:28:00.780Z,101667.00
2018-09-15T07:30:29.602Z,101682.00
2018-09-15T07:32:58.405Z,101677.00
2018-09-15T07:35:27.206Z,101665.00
2018-09-15T07:37:56.001Z,101678.00
2018-09-15T07:40:24.976Z,101682.00
2018-09-15T07:42:53.786Z,101680.00
2018-09-15T07:45:22.641Z,101684.00
2018-09-15T07:47:52.457Z,101682.00
2018-09-15T07:50:21.261Z,101683.00
2018-09-15T07:52:50.103Z,101697.00
2018-09-15T07:55:18.927Z,101699.00
2018-09-15T07:57:47.784Z,101710.00
2018-09-15T08:00:16.590Z,101708.00
2018-09-15T08:02:45.560Z,101703.00
2018-09-15T08:05:14.578Z,101700.00
2018-09-15T08:07:43.942Z,101703.00
2018-09-15T08:10:12.899Z,101715.00
2018-09-15T08:12:41.787Z,101705.00
2018-09-15T08:15:10.676Z,101713.00
2018-09-15T08:17:39.705Z,101715.00
2018-09-15T08:20:08.719Z,101722.00
2018-09-15T08:22:37.559Z,101715.00
2018-09-15T08:25:08.987Z,101731.00
2018-09-15T08:27:37.807Z,101723.00
2018-09-15T08:30:06.723Z,101720.00
2018-09-15T08:32:35.545Z,101722.00
2018-09-15T08:35:04.514Z,101718.00
2018-09-15T08:37:33.398Z,101727.00
2018-09-15T08:40:02.204Z,101739.00
2018-09-15T08:42:31.044Z,101747.00
2018-09-15T08:44:59.868Z,101739.00
2018-09-15T08:47:29.221Z,101745.00
2018-09-15T08:49:58.066Z,101752.00
2018-09-15T08:52:27.139Z,101742.00
2018-09-15T08:54:56.241Z,101747.00
2018-09-15T08:57:25.095Z,101743.00
2018-09-15T08:59:54.043Z,101736.00
2018-09-15T09:02:22.863Z,101739.00
2018-09-15T09:04:51.682Z,101737.00
2018-09-15T09:07:20.546Z,101744.00
2018-09-15T09:09:50.129Z,101717.00
2018-09-15T09:12:18.946Z,101733.00
2018-09-15T09:14:47.853Z,101737.00
2018-09-15T09:17:16.931Z,101739.00
2018-09-15T09:19:45.809Z,101742.00
2018-09-15T09:22:14.622Z,101742.00
2018-09-15T09:24:43.425Z,101750.00
2018-09-15T09:27:12.246Z,101737.00
2018-09-15T09:29:41.069Z,101740.00
2018-09-15T09:32:10.214Z,101729.00
2018-09-15T09:34:39.014Z,101733.00
2018-09-15T09:37:07.813Z,101695.00
2018-09-15T09:39:36.675Z,101733.00
2018-09-15T09:42:05.482Z,101726.00
2018-09-15T09:44:34.285Z,101735.00
2018-09-15T09:47:03.115Z,101728.00
2018-09-15T09:49:31.894Z,101722.00
2018-09-15T09:52:00.691Z,101726.00
2018-09-15T09:54:29.967Z,101731.00
2018-09-15T09:56:58.771Z,101734.00
2018-09-15T09:59:27.551Z,101738.00
2018-09-15T10:02:01.185Z,101734.00
2018-09-15T10:04:30.655Z,101741.00
2018-09-15T10:06:59.503Z,101738.00
2018-09-15T10:09:28.324Z,101743.00
2018-09-15T10:11:57.558Z,101747.00
2018-09-15T10:14:26.375Z,101744.00
2018-09-15T10:16:55.631Z,101750.00
2018-09-15T10:19:24.466Z,101749.00
2018-09-15T10:21:53.279Z,101750.00
2018-09-15T10:24:22.123Z,101754.00
2018-09-15T10:26:50.955Z,101752.00
2018-09-15T10:29:19.745Z,101744.00
2018-09-15T10:31:48.596Z,101740.00
2018-09-15T10:34:17.510Z,101747.00
2018-09-15T10:36:46.310Z,101741.00
2018-09-15T10:39:15.537Z,101745.00
2018-09-15T10:41:44.333Z,101748.00
2018-09-15T10:44:13.159Z,101742.00
2018-09-15T10:46:42.056Z,101758.00
2018-09-15T10:49:10.843Z,101753.00
2018-09-15T10:51:39.669Z,101740.00
2018-09-15T10:54:08.547Z,101738.00
2018-09-15T10:56:37.331Z,101742.00
2018-09-15T10:59:06.221Z,101738.00
2018-09-15T11:01:35.245Z,101742.00
2018-09-15T11:04:04.038Z,101741.00
2018-09-15T11:06:32.943Z,101746.00
2018-09-15T11:09:01.755Z,101751.00
2018-09-15T11:11:30.559Z,101744.00
2018-09-15T11:13:59.659Z,101741.00
2018-09-15T11:16:28.470Z,101744.00
2018-09-15T11:18:57.257Z,101735.00
2018-09-15T11:21:26.053Z,101738.00
2018-09-15T11:23:55.080Z,101747.00
2018-09-15T11:26:26.868Z,101743.00
2018-09-15T11:28:55.765Z,101741.00
2018-09-15T11:31:24.543Z,101743.00
2018-09-15T11:33:53.364Z,101739.00
2018-09-15T11:36:22.162Z,101743.00
2018-09-15T11:38:50.975Z,101731.00
2018-09-15T11:41:19.866Z,101739.00
2018-09-15T11:43:48.595Z,101734.00
2018-09-15T11:46:17.514Z,101728.00
2018-09-15T11:48:46.338Z,101737.00
2018-09-15T11:51:15.126Z,101734.00
2018-09-15T11:53:43.948Z,101733.00
2018-09-15T11:56:12.775Z,101733.00
2018-09-15T11:58:41.581Z,101731.00
2018-09-15T12:01:10.443Z,101736.00
2018-09-15T12:03:39.235Z,101732.00
2018-09-15T12:06:08.037Z,101742.00
2018-09-15T12:08:37.266Z,101732.00
2018-09-15T12:11:06.253Z,101740.00
2018-09-15T12:13:35.058Z,101741.00
2018-09-15T12:16:04.357Z,101742.00
2018-09-15T12:18:33.152Z,101742.00
2018-09-15T12:21:01.996Z,101744.00
2018-09-15T12:23:30.985Z,101750.00
2018-09-15T12:25:59.838Z,101736.00
2018-09-15T12:28:28.710Z,101735.00
2018-09-15T12:30:57.791Z,101736.00
2018-09-15T12:33:26.622Z,101750.00
2018-09-15T12:35:55.469Z,101746.00
2018-09-15T12:38:24.345Z,101741.00
2018-09-15T12:40:53.215Z,101749.00
2018-09-15T12:43:22.018Z,101748.00
2018-09-15T12:45:50.849Z,101754.00
2018-09-15T12:48:19.640Z,101752.00
2018-09-15T12:50:48.471Z,101753.00
2018-09-15T12:53:17.671Z,101749.00
2018-09-15T12:55:46.581Z,101751.00
2018-09-15T12:58:15.499Z,101759.00
2018-09-15T13:00:44.388Z,101757.00
2018-09-15T13:03:13.240Z,101754.00
2018-09-15T13:05:42.110Z,101768.00
2018-09-15T13:08:11.012Z,101763.00
2018-09-15T13:10:39.861Z,101759.00
2018-09-15T13:13:08.723Z,101768.00
2018-09-15T13:15:37.836Z,101768.00
2018-09-15T13:18:06.827Z,101764.00
2018-09-15T13:20:35.641Z,101762.00
2018-09-15T13:23:04.445Z,101769.00
2018-09-15T13:25:33.243Z,101767.00
2018-09-15T13:28:02.043Z,101770.00
2018-09-15T13:30:30.869Z,101769.00
2018-09-15T13:32:59.839Z,101767.00
2018-09-15T13:35:28.629Z,101760.00
2018-09-15T13:37:57.983Z,101767.00
2018-09-15T13:40:26.769Z,101761.00
2018-09-15T13:42:55.587Z,101756.00
2018-09-15T13:45:24.434Z,101683.00
2018-09-15T13:47:53.325Z,101749.00
2018-09-15T13:50:22.155Z,101759.00
2018-09-15T13:52:51.010Z,101761.00
2018-09-15T13:55:19.821Z,101771.00
2018-09-15T13:57:48.662Z,101761.00
2018-09-15T14:00:18.552Z,101757.00
2018-09-15T14:02:47.365Z,101772.00
2018-09-15T14:05:16.191Z,101772.00
2018-09-15T14:07:44.994Z,101773.00
2018-09-15T14:10:19.012Z,101777.00
2018-09-15T14:12:42.709Z,101780.00
2018-09-15T14:15:11.538Z,101776.00
2018-09-15T14:17:40.391Z,101768.00
2018-09-15T14:20:09.679Z,101757.00
2018-09-15T14:22:38.750Z,101763.00
2018-09-15T14:25:08.716Z,101762.00
2018-09-15T14:27:37.553Z,101767.00
2018-09-15T14:30:07.386Z,101769.00
2018-09-15T14:32:36.315Z,101761.00
2018-09-15T14:35:05.200Z,101763.00
2018-09-15T14:37:34.013Z,101774.00
2018-09-15T14:40:02.817Z,101769.00
2018-09-15T14:42:31.666Z,101769.00
2018-09-15T14:45:00.630Z,101774.00
2018-09-15T14:47:29.473Z,101780.00
2018-09-15T14:49:58.363Z,101765.00
2018-09-15T14:52:27.514Z,101763.00
2018-09-15T14:54:56.321Z,101766.00
2018-09-15T14:57:25.209Z,101775.00
2018-09-15T14:59:54.022Z,101771.00
2018-09-15T15:02:22.835Z,101777.00
2018-09-15T15:04:51.637Z,101777.00
2018-09-15T15:07:20.712Z,101769.00
2018-09-15T15:09:49.593Z,101782.00
2018-09-15T15:12:18.404Z,101776.00
2018-09-15T15:14:47.245Z,101776.00
2018-09-15T15:17:16.059Z,101785.00
2018-09-15T15:19:44.895Z,101784.00
2018-09-15T15:22:14.031Z,101795.00
2018-09-15T15:24:42.842Z,101787.00
2018-09-15T15:27:11.666Z,101792.00
2018-09-15T15:29:40.710Z,101794.00
2018-09-15T15:32:09.527Z,101797.00
2018-09-15T15:34:38.366Z,101799.00
2018-09-15T15:37:07.296Z,101795.00
2018-09-15T15:39:36.154Z,101795.00
2018-09-15T15:42:05.018Z,101780.00
2018-09-15T15:44:33.845Z,101786.00
2018-09-15T15:47:02.723Z,101791.00
2018-09-15T15:49:31.629Z,101792.00
2018-09-15T15:52:00.626Z,101794.00
2018-09-15T15:54:29.476Z,101790.00
2018-09-15T15:56:58.361Z,101793.00
2018-09-15T15:59:27.115Z,101796.00
2018-09-15T16:01:55.919Z,101805.00
2018-09-15T16:04:24.777Z,101800.00
2018-09-15T16:06:53.559Z,101802.00
2018-09-15T16:09:22.358Z,101807.00
2018-09-15T16:11:51.222Z,101802.00
2018-09-15T16:14:20.339Z,101802.00
2018-09-15T16:16:49.163Z,101796.00
2018-09-15T16:19:18.017Z,101803.00
2018-09-15T16:21:46.968Z,101798.00
2018-09-15T16:24:16.203Z,101806.00
2018-09-15T16:26:44.998Z,101812.00
2018-09-15T16:29:13.838Z,101816.00
2018-09-15T16:31:42.653Z,101822.00
2018-09-15T16:34:11.464Z,101814.00
2018-09-15T16:36:40.405Z,101815.00
2018-09-15T16:39:10.986Z,101826.00
2018-09-15T16:41:39.950Z,101821.00
2018-09-15T16:44:08.872Z,101828.00
2018-09-15T16:46:37.745Z,101826.00
2018-09-15T16:49:07.398Z,101833.00
2018-09-15T16:51:36.367Z,101819.00
2018-09-15T16:54:06.047Z,101832.00
2018-09-15T16:56:35.513Z,101835.00
2018-09-15T16:59:04.681Z,101829.00
2018-09-15T17:01:33.489Z,101827.00
2018-09-15T17:04:02.341Z,101835.00
2018-09-15T17:06:31.167Z,101828.00
2018-09-15T17:08:59.991Z,101840.00
2018-09-15T17:11:28.794Z,101832.00
2018-09-15T17:13:57.657Z,101837.00
2018-09-15T17:16:26.581Z,101840.00
2018-09-15T17:18:55.392Z,101836.00
2018-09-15T17:21:24.548Z,101835.00
2018-09-15T17:23:53.356Z,101838.00
2018-09-15T17:26:22.659Z,101841.00
2018-09-15T17:28:51.456Z,101860.00
2018-09-15T17:31:20.366Z,101862.00
2018-09-15T17:33:49.068Z,101852.00
2018-09-15T17:36:17.891Z,101855.00
2018-09-15T17:38:46.689Z,101864.00
2018-09-15T17:41:15.558Z,101856.00
2018-09-15T17:43:44.714Z,101858.00
2018-09-15T17:46:13.537Z,101870.00
2018-09-15T17:48:42.431Z,101873.00
2018-09-15T17:51:11.256Z,101862.00
2018-09-15T17:53:40.037Z,101872.00
2018-09-15T17:56:08.904Z,101877.00
2018-09-15T17:58:37.746Z,101875.00
2018-09-15T18:01:06.597Z,101891.00
2018-09-15T18:03:35.474Z,101899.00
2018-09-15T18:06:04.933Z,101903.00
2018-09-15T18:08:33.773Z,101900.00
2018-09-15T18:11:02.569Z,101908.00
2018-09-15T18:13:31.443Z,101911.00
2018-09-15T18:16:00.290Z,101908.00
2018-09-15T18:18:29.172Z,101911.00
2018-09-15T18:20:57.978Z,101925.00
2018-09-15T18:23:26.777Z,101940.00
2018-09-15T18:25:55.611Z,101942.00
2018-09-15T18:28:25.158Z,101929.00
2018-09-15T18:30:53.969Z,101949.00
2018-09-15T18:33:22.775Z,101966.00
2018-09-15T18:35:51.675Z,101962.00
2018-09-15T18:38:20.499Z,101967.00
2018-09-15T18:40:49.338Z,101969.00
2018-09-15T18:43:24.552Z,101974.00
2018-09-15T18:45:53.375Z,101979.00
2018-09-15T18:48:22.208Z,101966.00
2018-09-15T18:50:51.599Z,101973.00
2018-09-15T18:53:20.406Z,101985.00
2018-09-15T18:55:49.230Z,101969.00
2018-09-15T18:58:18.128Z,101974.00
2018-09-15T19:00:47.003Z,101986.00
2018-09-15T19:03:16.755Z,101984.00
2018-09-15T19:05:46.627Z,101993.00
2018-09-15T19:08:15.458Z,101987.00
2018-09-15T19:10:44.347Z,101998.00
2018-09-15T19:13:14.142Z,101999.00
2018-09-15T19:15:42.959Z,102008.00
2018-09-15T19:18:11.767Z,102001.00
2018-09-15T19:20:40.603Z,102003.00
2018-09-15T19:23:09.417Z,101998.00
2018-09-15T19:25:38.348Z,102004.00
2018-09-15T19:28:07.173Z,102011.00
2018-09-15T19:30:36.461Z,102011.00
2018-09-15T19:33:05.296Z,102026.00
2018-09-15T19:35:34.450Z,102026.00
2018-09-15T19:38:03.275Z,102017.00
2018-09-15T19:40:32.162Z,102021.00
2018-09-15T19:43:01.035Z,102011.00
2018-09-15T19:45:29.855Z,102013.00
2018-09-15T19:47:58.633Z,102022.00
2018-09-15T19:50:27.434Z,102012.00
2018-09-15T19:52:56.253Z,102025.00
2018-09-15T19:55:25.179Z,102021.00
2018-09-15T19:57:54.281Z,102028.00
2018-09-15T20:00:23.604Z,102024.00
2018-09-15T20:02:52.431Z,102040.00
2018-09-15T20:05:21.357Z,102033.00
2018-09-15T20:07:50.131Z,102036.00
2018-09-15T20:10:18.973Z,102040.00
2018-09-15T20:12:47.943Z,102040.00
2018-09-15T20:15:23.675Z,102027.00
2018-09-15T20:17:51.732Z,102017.00
2018-09-15T20:20:19.726Z,102018.00
2018-09-15T20:22:49.094Z,102025.00
2018-09-15T20:25:17.983Z,102029.00
2018-09-15T20:27:46.915Z,102027.00
2018-09-15T20:30:15.758Z,102024.00
2018-09-15T20:32:44.998Z,102020.00
2018-09-15T20:35:13.798Z,102025.00
2018-09-15T20:37:42.631Z,102027.00
2018-09-15T20:40:11.669Z,102033.00
2018-09-15T20:42:40.959Z,102034.00
2018-09-15T20:45:09.862Z,102035.00
2018-09-15T20:47:38.846Z,102033.00
2018-09-15T20:50:08.846Z,102041.00
2018-09-15T20:52:37.714Z,102025.00
2018-09-15T20:55:08.678Z,102025.00
2018-09-15T20:57:37.481Z,102027.00
2018-09-15T21:00:10.145Z,102030.00
2018-09-15T21:02:39.335Z,102032.00
2018-09-15T21:05:08.942Z,102031.00
2018-09-15T21:07:37.923Z,102034.00
2018-09-15T21:10:08.674Z,102032.00
2018-09-15T21:12:37.608Z,102028.00
2018-09-15T21:15:08.487Z,102028.00
2018-09-15T21:17:37.330Z,102034.00
2018-09-15T21:20:06.289Z,102044.00
2018-09-15T21:22:35.379Z,102037.00
2018-09-15T21:25:04.203Z,102040.00
2018-09-15T21:27:33.035Z,102045.00
2018-09-15T21:30:01.842Z,102045.00
2018-09-15T21:32:30.687Z,102050.00
2018-09-15T21:35:00.046Z,102058.00
2018-09-15T21:37:28.831Z,102064.00
2018-09-15T21:39:57.674Z,102060.00
2018-09-15T21:42:26.603Z,102063.00
2018-09-15T21:44:55.728Z,102055.00
2018-09-15T21:47:24.524Z,102061.00
2018-09-15T21:49:53.540Z,102060.00
2018-09-15T21:52:22.373Z,102067.00
2018-09-15T21:54:51.209Z,102067.00
2018-09-15T21:57:19.991Z,102068.00
2018-09-15T21:59:48.843Z,102070.00
2018-09-15T22:02:17.667Z,102069.00
2018-09-15T22:04:46.450Z,102067.00
2018-09-15T22:07:15.523Z,102069.00
2018-09-15T22:09:44.327Z,102073.00
2018-09-15T22:12:13.218Z,102067.00
2018-09-15T22:14:42.034Z,102078.00
2018-09-15T22:17:10.949Z,102072.00
2018-09-15T22:19:39.785Z,102077.00
2018-09-15T22:22:08.630Z,102076.00
2018-09-15T22:24:37.451Z,102078.00
2018-09-15T22:27:06.359Z,102083.00
2018-09-15T22:29:35.306Z,102088.00
2018-09-15T22:32:04.131Z,102084.00
2018-09-15T22:34:32.933Z,102086.00
2018-09-15T22:37:02.130Z,102081.00
2018-09-15T22:39:30.909Z,102086.00
2018-09-15T22:41:59.726Z,102085.00
2018-09-15T22:44:28.586Z,102084.00
2018-09-15T22:46:57.375Z,102079.00
2018-09-15T22:49:26.180Z,102078.00
2018-09-15T22:51:55.174Z,102088.00
2018-09-15T22:54:23.992Z,102091.00
2018-09-15T22:56:52.809Z,102085.00
2018-09-15T22:59:21.630Z,102089.00
2018-09-15T23:01:50.435Z,102096.00
2018-09-15T23:04:19.255Z,102096.00
2018-09-15T23:06:48.099Z,102099.00
2018-09-15T23:09:16.899Z,102094.00
2018-09-15T23:11:46.693Z,102097.00
2018-09-15T23:14:15.887Z,102094.00
2018-09-15T23:16:44.678Z,102094.00
2018-09-15T23:19:13.588Z,102099.00
2018-09-15T23:21:42.323Z,102099.00
2018-09-15T23:24:11.142Z,102094.00
2018-09-15T23:26:39.939Z,102098.00
2018-09-15T23:29:08.752Z,102095.00
2018-09-15T23:31:37.634Z,102106.00
2018-09-15T23:34:06.526Z,102103.00
2018-09-15T23:36:35.489Z,102102.00
2018-09-15T23:39:07.422Z,102104.00
2018-09-15T23:41:36.237Z,102104.00
2018-09-15T23:44:05.030Z,102111.00
2018-09-15T23:46:33.817Z,102112.00
2018-09-15T23:49:02.617Z,102106.00
2018-09-15T23:51:31.432Z,102101.00
2018-09-15T23:54:00.226Z,102107.00
2018-09-15T23:56:29.391Z,102110.00
2018-09-15T23:58:58.231Z,102112.00
